Accueil
METAR-TAF:

METAR-TAF

Aéroports :

Baden-Baden, Allemagne

Aéroport de Karlsruhe-Baden-Baden

latitude: 48-46-43N, longitude: 008-04-47E, altitude: 124 m

Observation

Le bulletin a été fait il y a 25 minutes, à 08:50 UTC
Vent 4 kt de direction variable
Température 18°C
Humidité 73%
Pression 1020 hPa
Visibilité 10 km ou plus
Nuages épars à une hauteur de 2200 ft

METAR: EDSB 190850Z VRB04KT 9999 SCT022 18/13 Q1020

Heure: 11:15 (09:15 UTC)

Prévision

Le bulletin a été fait il y a 4 heures et 15 minutes, à 05:00 UTC
Prévision valable du 19 à 06 UTC au 20 à 06 UTC
Vent 3 kt de direction variable
Visibilité 10 km ou plus
Nuages fragmentés à une hauteur de 4500 ft
Evoluant progressivement
du 19 à 08 UTC au 19 à 10 UTC
Vent 5 kt de ouest/sud-ouest
Evoluant progressivement
du 19 à 18 UTC au 19 à 20 UTC
Vent 3 kt de direction variable

TAF: EDSB 190500Z 1906/2006 VRB03KT 9999 BKN045 BECMG 1908/1910 25005KT BECMG 1918/1920 VRB03KT

Observations et prévisions météorologiques de plus de 4000 aéroports (messages METAR et TAF).

Les stations disponibles sont représentées par des disques jaunes et rouges sur la carte.

Passer la souris dessus pour voir le nom de la station.

Cliquer dessus pour voir les observations et prévisions météorologiques.

Pour changer de carte: cliquez sur les boutons verts avec une croix noire pour zoomer, sur le bouton vert avec un tiret pour effectuer un zoom arrière, ou sur les flèches vertes pour les cartes adjacentes.


METAR-TAF: